Share

Douglas, GA (31533)

Douglas Golf Club Area (KGADOUGL20) Elev 224 ft | 31.52 °N, 82.84 °W | Change Station

Current weather conditions updated 4 minutes ago

Overcast
Overcast
53.6 °F
Feels Like 53.6 °F
N
0.0
Wind Variable Wind from North
Gusts 0.9 mph
Sunrise 6:57 AM
Sunset 8:03 PM
Moon Waning Gibbous

Today is forecast to be Much Warmer than yesterday.

Pressure 30.17 in
Visibility 10.0 miles
Clouds Overcast 800 ft
Dew Point 52 °F
Humidity 96%
Rainfall 0.01 in
Snow Depth Not available.
UV 2 out of 16
Pollen 8.90 out of 12
Air Quality Not available.
Flu Activity Sporadic
METAR KDQH 201435Z AUTO 03011KT 10SM OVC008 12/11 A3017 RMK AO2

More Conditions Fewer Conditions

Pressure 30.17 in
Visibility 10.0 miles
Clouds Overcast 800 ft
Dew Point 52 °F
Humidity 96%
Rainfall 0.01 in
Snow Depth Not available.
UV 2 out of 16
Pollen 8.90 out of 12
Air Quality Not available.
Flu Activity Sporadic
METAR KDQH 201435Z AUTO 03011KT 10SM OVC008 12/11 A3017 RMK AO2

More Conditions Fewer Conditions

10-Day Weather Forecast

Almanac

Astronomy

Apr. 20, 2014 Rise Set
Actual Time 6:57 AM EDT 8:03 PM EDT
Civil Twilight 6:32 AM EDT 8:28 PM EDT
Nautical Twilight 6:02 AM EDT 8:58 PM EDT
Astronomical Twilight 5:31 AM EDT 9:29 PM EDT
Moon 12:34 AM EDT 11:23 AM EDT
Length of Visible Light 13h 56m
Length of Day
13h 06m
Tomorrow will be 1m 47s longer.
Waning Gibbous, 69% of the Moon is Illuminated
Today
Waning Gibbous
Apr 22
Last Quarter
Apr 29
New
May 6
First Quarter
May 14
Full

Today's Extremes

State Highs State Lows

Community

  • Easter Sunrise
    Easter Sunrise
  • Happy Easter
    Happy Easter
  • EARLY FOGGY MORNING
    EARLY FOGGY MORNING
  • Easter Greetings
    Easter Greetings
  • Sunny day at the coast-Cape Arago Lighthouse
    Sunny day at the coast-Cape Arago Lighthouse

WunderPhotos

Upload Photos

1,703,235 photos uploaded!

Nearby

Snow Depth

Station Depth Elevation
No new snow has been reported.

Coastal Water Temperatures

Place Temperature
No Stations Reporting

Earthquake Activity

City Distance Mag. Time & Date
No recent earthquake activity has been reported nearby.
Minimum magnitude displayed is 2.5.

Nearby Weather Stations

Station Location Temp. Dew Point Humidity Wind Precip. Elev Updated Type
Douglas Golf Club Area, Douglas, GA 53.6 °F 52 °F 96% North  at  0.0 mph 0.00 in / hr 224 ft 10:46 AM EDT Rapid Fire
Baymeadows Lake, Douglas, GA 54.9 °F 54 °F 97% North  at  3.8 mph 0.00 in / hr 256 ft 10:50 AM EDT Rapid Fire
Courthouse, Pearson, GA 54.1 °F 53 °F 97% NW  at  3.6 mph 0.00 in / hr 226 ft 7:30 AM EDT Rapid Fire
Jacksonville, GA 52.3 °F 51 °F 96% NNE  at  11.0 mph 0.00 in / hr 171 ft 10:47 AM EDT Normal

Show More Stations Show Fewer Stations

What do you think?

We're not finished. Please let us know what you like, what you don't like, and what you are still missing.